sensor_id;sensor_type;location;lat;lon;timestamp;P1;durP1;ratioP1;P2;durP2;ratioP2
71435;SDS011;59251;51.326;12.370;2022-09-28T00:00:05;6.20;;;0.83;;
71435;SDS011;59251;51.326;12.370;2022-09-28T00:02:31;4.80;;;0.80;;
71435;SDS011;59251;51.326;12.370;2022-09-28T00:04:57;4.25;;;0.73;;
71435;SDS011;59251;51.326;12.370;2022-09-28T00:07:22;4.20;;;0.70;;
71435;SDS011;59251;51.326;12.370;2022-09-28T00:09:48;4.10;;;0.60;;
71435;SDS011;59251;51.326;12.370;2022-09-28T00:12:13;4.53;;;0.80;;
71435;SDS011;59251;51.326;12.370;2022-09-28T00:14:38;4.83;;;0.90;;
71435;SDS011;59251;51.326;12.370;2022-09-28T00:17:08;6.13;;;1.00;;
71435;SDS011;59251;51.326;12.370;2022-09-28T00:19:34;4.95;;;1.10;;
71435;SDS011;59251;51.326;12.370;2022-09-28T00:22:00;4.30;;;0.90;;
71435;SDS011;59251;51.326;12.370;2022-09-28T00:24:25;4.57;;;0.70;;
71435;SDS011;59251;51.326;12.370;2022-09-28T00:26:52;4.88;;;0.98;;
71435;SDS011;59251;51.326;12.370;2022-09-28T00:29:23;5.05;;;0.90;;
71435;SDS011;59251;51.326;12.370;2022-09-28T00:31:54;4.30;;;0.68;;
71435;SDS011;59251;51.326;12.370;2022-09-28T00:34:24;4.40;;;0.73;;
71435;SDS011;59251;51.326;12.370;2022-09-28T00:36:56;3.87;;;0.67;;
71435;SDS011;59251;51.326;12.370;2022-09-28T00:39:22;4.18;;;0.70;;
71435;SDS011;59251;51.326;12.370;2022-09-28T00:41:48;5.22;;;0.88;;
71435;SDS011;59251;51.326;12.370;2022-09-28T00:49:58;4.07;;;0.70;;
71435;SDS011;59251;51.326;12.370;2022-09-28T00:52:32;4.40;;;0.60;;
71435;SDS011;59251;51.326;12.370;2022-09-28T00:55:03;5.85;;;1.20;;
71435;SDS011;59251;51.326;12.370;2022-09-28T00:57:31;4.53;;;0.90;;
71435;SDS011;59251;51.326;12.370;2022-09-28T00:59:58;6.05;;;1.00;;
71435;SDS011;59251;51.326;12.370;2022-09-28T01:02:25;6.05;;;1.40;;
71435;SDS011;59251;51.326;12.370;2022-09-28T01:04:51;4.60;;;1.15;;
71435;SDS011;59251;51.326;12.370;2022-09-28T01:07:17;5.10;;;0.80;;
71435;SDS011;59251;51.326;12.370;2022-09-28T01:09:43;4.20;;;0.70;;
71435;SDS011;59251;51.326;12.370;2022-09-28T01:12:09;4.20;;;0.60;;
71435;SDS011;59251;51.326;12.370;2022-09-28T01:14:35;4.57;;;0.97;;
71435;SDS011;59251;51.326;12.370;2022-09-28T01:18:03;5.07;;;0.98;;
71435;SDS011;59251;51.326;12.370;2022-09-28T01:20:08;5.60;;;0.80;;
71435;SDS011;59251;51.326;12.370;2022-09-28T01:25:53;4.50;;;0.80;;
71435;SDS011;59251;51.326;12.370;2022-09-28T01:28:24;4.63;;;0.80;;
71435;SDS011;59251;51.326;12.370;2022-09-28T01:31:11;4.35;;;0.93;;
71435;SDS011;59251;51.326;12.370;2022-09-28T01:33:49;4.93;;;1.00;;
71435;SDS011;59251;51.326;12.370;2022-09-28T01:36:25;5.10;;;0.73;;
71435;SDS011;59251;51.326;12.370;2022-09-28T01:39:04;6.43;;;1.60;;
71435;SDS011;59251;51.326;12.370;2022-09-28T01:41:34;5.03;;;1.00;;
71435;SDS011;59251;51.326;12.370;2022-09-28T01:44:05;7.20;;;1.30;;
71435;SDS011;59251;51.326;12.370;2022-09-28T01:46:40;4.80;;;0.77;;
71435;SDS011;59251;51.326;12.370;2022-09-28T01:49:13;4.17;;;0.70;;
71435;SDS011;59251;51.326;12.370;2022-09-28T01:54:40;5.32;;;1.00;;
71435;SDS011;59251;51.326;12.370;2022-09-28T01:57:14;4.25;;;0.93;;
71435;SDS011;59251;51.326;12.370;2022-09-28T01:59:48;6.15;;;1.02;;
71435;SDS011;59251;51.326;12.370;2022-09-28T02:02:24;5.37;;;1.00;;
71435;SDS011;59251;51.326;12.370;2022-09-28T02:05:05;4.43;;;0.93;;
71435;SDS011;59251;51.326;12.370;2022-09-28T02:07:44;4.85;;;1.05;;
71435;SDS011;59251;51.326;12.370;2022-09-28T02:10:18;4.97;;;0.95;;
71435;SDS011;59251;51.326;12.370;2022-09-28T02:12:53;6.25;;;1.00;;
71435;SDS011;59251;51.326;12.370;2022-09-28T02:15:29;6.87;;;1.00;;
71435;SDS011;59251;51.326;12.370;2022-09-28T02:18:01;6.80;;;0.98;;
71435;SDS011;59251;51.326;12.370;2022-09-28T02:20:27;5.60;;;1.00;;
71435;SDS011;59251;51.326;12.370;2022-09-28T02:22:55;4.83;;;0.87;;
71435;SDS011;59251;51.326;12.370;2022-09-28T02:25:39;5.32;;;1.15;;
71435;SDS011;59251;51.326;12.370;2022-09-28T02:28:09;5.07;;;0.80;;
71435;SDS011;59251;51.326;12.370;2022-09-28T02:30:38;5.20;;;0.90;;
71435;SDS011;59251;51.326;12.370;2022-09-28T02:33:08;4.15;;;0.90;;
71435;SDS011;59251;51.326;12.370;2022-09-28T02:35:34;5.03;;;1.00;;
71435;SDS011;59251;51.326;12.370;2022-09-28T02:38:02;5.20;;;0.95;;
71435;SDS011;59251;51.326;12.370;2022-09-28T02:40:30;5.10;;;0.70;;
71435;SDS011;59251;51.326;12.370;2022-09-28T02:43:40;4.63;;;0.90;;
71435;SDS011;59251;51.326;12.370;2022-09-28T03:00:43;5.90;;;0.73;;
71435;SDS011;59251;51.326;12.370;2022-09-28T03:03:27;4.40;;;0.70;;
71435;SDS011;59251;51.326;12.370;2022-09-28T03:06:10;4.53;;;0.90;;
71435;SDS011;59251;51.326;12.370;2022-09-28T03:12:02;4.50;;;0.70;;
71435;SDS011;59251;51.326;12.370;2022-09-28T03:14:31;4.93;;;0.80;;
71435;SDS011;59251;51.326;12.370;2022-09-28T03:16:57;4.97;;;0.70;;
71435;SDS011;59251;51.326;12.370;2022-09-28T03:19:26;5.27;;;0.70;;
71435;SDS011;59251;51.326;12.370;2022-09-28T03:21:55;4.80;;;0.80;;
71435;SDS011;59251;51.326;12.370;2022-09-28T03:24:20;6.37;;;1.00;;
71435;SDS011;59251;51.326;12.370;2022-09-28T03:26:46;4.45;;;0.82;;
71435;SDS011;59251;51.326;12.370;2022-09-28T03:29:11;4.57;;;0.73;;
71435;SDS011;59251;51.326;12.370;2022-09-28T03:31:36;5.63;;;0.90;;
71435;SDS011;59251;51.326;12.370;2022-09-28T03:34:02;5.07;;;0.70;;
71435;SDS011;59251;51.326;12.370;2022-09-28T03:36:27;6.77;;;0.70;;
71435;SDS011;59251;51.326;12.370;2022-09-28T03:38:53;5.43;;;0.88;;
71435;SDS011;59251;51.326;12.370;2022-09-28T03:41:24;5.30;;;0.95;;
71435;SDS011;59251;51.326;12.370;2022-09-28T03:43:51;4.85;;;0.80;;
71435;SDS011;59251;51.326;12.370;2022-09-28T03:46:17;6.07;;;1.00;;
71435;SDS011;59251;51.326;12.370;2022-09-28T03:48:43;4.90;;;0.90;;
71435;SDS011;59251;51.326;12.370;2022-09-28T03:51:08;4.43;;;0.67;;
71435;SDS011;59251;51.326;12.370;2022-09-28T03:53:35;5.85;;;1.08;;
71435;SDS011;59251;51.326;12.370;2022-09-28T03:56:02;5.15;;;1.25;;
71435;SDS011;59251;51.326;12.370;2022-09-28T03:58:38;4.63;;;0.90;;
71435;SDS011;59251;51.326;12.370;2022-09-28T04:01:06;5.00;;;0.90;;
71435;SDS011;59251;51.326;12.370;2022-09-28T04:03:33;5.55;;;1.30;;
71435;SDS011;59251;51.326;12.370;2022-09-28T04:05:59;5.20;;;1.08;;
71435;SDS011;59251;51.326;12.370;2022-09-28T04:08:25;4.43;;;0.73;;
71435;SDS011;59251;51.326;12.370;2022-09-28T04:10:50;5.00;;;1.17;;
71435;SDS011;59251;51.326;12.370;2022-09-28T04:13:16;5.22;;;1.20;;
71435;SDS011;59251;51.326;12.370;2022-09-28T04:15:41;6.53;;;1.45;;
71435;SDS011;59251;51.326;12.370;2022-09-28T04:18:10;5.50;;;1.20;;
71435;SDS011;59251;51.326;12.370;2022-09-28T04:20:37;5.90;;;1.20;;
71435;SDS011;59251;51.326;12.370;2022-09-28T04:23:05;6.45;;;1.30;;
71435;SDS011;59251;51.326;12.370;2022-09-28T04:25:30;6.07;;;1.40;;
71435;SDS011;59251;51.326;12.370;2022-09-28T04:27:56;6.93;;;1.60;;
71435;SDS011;59251;51.326;12.370;2022-09-28T04:30:40;5.93;;;1.57;;
71435;SDS011;59251;51.326;12.370;2022-09-28T04:33:05;6.07;;;1.40;;
71435;SDS011;59251;51.326;12.370;2022-09-28T04:35:30;6.13;;;1.83;;
71435;SDS011;59251;51.326;12.370;2022-09-28T04:37:56;7.73;;;1.70;;
71435;SDS011;59251;51.326;12.370;2022-09-28T04:40:21;5.70;;;1.50;;
71435;SDS011;59251;51.326;12.370;2022-09-28T04:42:53;5.40;;;1.50;;
71435;SDS011;59251;51.326;12.370;2022-09-28T04:45:19;5.88;;;1.60;;
71435;SDS011;59251;51.326;12.370;2022-09-28T04:47:44;7.23;;;1.90;;
71435;SDS011;59251;51.326;12.370;2022-09-28T04:50:10;6.40;;;1.87;;
71435;SDS011;59251;51.326;12.370;2022-09-28T04:52:35;8.00;;;2.10;;
71435;SDS011;59251;51.326;12.370;2022-09-28T04:55:01;8.23;;;1.70;;
71435;SDS011;59251;51.326;12.370;2022-09-28T04:57:27;6.30;;;1.60;;
71435;SDS011;59251;51.326;12.370;2022-09-28T04:59:53;5.70;;;1.80;;
71435;SDS011;59251;51.326;12.370;2022-09-28T05:02:18;7.03;;;2.10;;
71435;SDS011;59251;51.326;12.370;2022-09-28T05:04:44;6.60;;;1.83;;
71435;SDS011;59251;51.326;12.370;2022-09-28T05:07:09;8.43;;;2.47;;
71435;SDS011;59251;51.326;12.370;2022-09-28T05:09:34;8.40;;;2.20;;
71435;SDS011;59251;51.326;12.370;2022-09-28T05:12:00;7.97;;;1.80;;
71435;SDS011;59251;51.326;12.370;2022-09-28T05:14:25;6.63;;;1.70;;
71435;SDS011;59251;51.326;12.370;2022-09-28T05:16:51;6.15;;;2.00;;
71435;SDS011;59251;51.326;12.370;2022-09-28T05:19:16;7.38;;;2.30;;
71435;SDS011;59251;51.326;12.370;2022-09-28T05:21:42;7.87;;;1.90;;
71435;SDS011;59251;51.326;12.370;2022-09-28T05:24:09;9.50;;;2.15;;
71435;SDS011;59251;51.326;12.370;2022-09-28T05:26:35;8.90;;;2.90;;
71435;SDS011;59251;51.326;12.370;2022-09-28T05:29:01;7.55;;;2.20;;
71435;SDS011;59251;51.326;12.370;2022-09-28T05:31:26;6.80;;;1.97;;
71435;SDS011;59251;51.326;12.370;2022-09-28T05:33:52;6.43;;;2.30;;
71435;SDS011;59251;51.326;12.370;2022-09-28T05:36:18;6.78;;;2.03;;
71435;SDS011;59251;51.326;12.370;2022-09-28T05:38:44;6.60;;;2.13;;
71435;SDS011;59251;51.326;12.370;2022-09-28T05:41:09;7.78;;;1.95;;
71435;SDS011;59251;51.326;12.370;2022-09-28T05:43:35;6.38;;;2.00;;
71435;SDS011;59251;51.326;12.370;2022-09-28T05:46:02;8.10;;;2.50;;
71435;SDS011;59251;51.326;12.370;2022-09-28T05:48:30;6.65;;;1.90;;
71435;SDS011;59251;51.326;12.370;2022-09-28T05:50:56;6.10;;;2.20;;
71435;SDS011;59251;51.326;12.370;2022-09-28T05:53:23;8.63;;;2.35;;
71435;SDS011;59251;51.326;12.370;2022-09-28T05:55:48;8.98;;;2.50;;
71435;SDS011;59251;51.326;12.370;2022-09-28T05:58:13;8.13;;;2.13;;
71435;SDS011;59251;51.326;12.370;2022-09-28T06:00:39;6.43;;;2.33;;
71435;SDS011;59251;51.326;12.370;2022-09-28T06:03:06;7.85;;;2.28;;
71435;SDS011;59251;51.326;12.370;2022-09-28T06:05:34;8.57;;;2.70;;
71435;SDS011;59251;51.326;12.370;2022-09-28T06:08:00;9.25;;;2.92;;
71435;SDS011;59251;51.326;12.370;2022-09-28T06:10:28;7.18;;;2.47;;
71435;SDS011;59251;51.326;12.370;2022-09-28T06:12:54;8.40;;;2.40;;
71435;SDS011;59251;51.326;12.370;2022-09-28T06:15:20;7.65;;;2.35;;
71435;SDS011;59251;51.326;12.370;2022-09-28T06:17:47;7.10;;;2.45;;
71435;SDS011;59251;51.326;12.370;2022-09-28T06:20:13;8.70;;;2.53;;
71435;SDS011;59251;51.326;12.370;2022-09-28T06:22:38;7.30;;;2.30;;
71435;SDS011;59251;51.326;12.370;2022-09-28T06:25:04;9.97;;;2.77;;
71435;SDS011;59251;51.326;12.370;2022-09-28T06:27:30;8.38;;;2.63;;
71435;SDS011;59251;51.326;12.370;2022-09-28T06:29:57;7.35;;;2.55;;
71435;SDS011;59251;51.326;12.370;2022-09-28T06:32:25;8.43;;;2.80;;
71435;SDS011;59251;51.326;12.370;2022-09-28T06:34:53;9.35;;;2.85;;
71435;SDS011;59251;51.326;12.370;2022-09-28T06:37:18;8.80;;;3.47;;
71435;SDS011;59251;51.326;12.370;2022-09-28T06:39:44;8.53;;;3.17;;
71435;SDS011;59251;51.326;12.370;2022-09-28T06:42:09;8.23;;;2.90;;
71435;SDS011;59251;51.326;12.370;2022-09-28T06:44:34;8.80;;;2.90;;
71435;SDS011;59251;51.326;12.370;2022-09-28T06:47:00;10.63;;;3.20;;
71435;SDS011;59251;51.326;12.370;2022-09-28T06:49:25;10.07;;;3.57;;
71435;SDS011;59251;51.326;12.370;2022-09-28T06:51:54;8.98;;;2.85;;
71435;SDS011;59251;51.326;12.370;2022-09-28T06:54:19;8.07;;;2.90;;
71435;SDS011;59251;51.326;12.370;2022-09-28T06:56:49;12.75;;;3.20;;
71435;SDS011;59251;51.326;12.370;2022-09-28T06:59:15;9.20;;;3.40;;
71435;SDS011;59251;51.326;12.370;2022-09-28T07:01:50;10.85;;;3.00;;
71435;SDS011;59251;51.326;12.370;2022-09-28T07:04:15;9.80;;;3.30;;
71435;SDS011;59251;51.326;12.370;2022-09-28T07:06:44;7.80;;;3.33;;
71435;SDS011;59251;51.326;12.370;2022-09-28T07:09:11;9.07;;;2.90;;
71435;SDS011;59251;51.326;12.370;2022-09-28T07:11:37;10.77;;;3.23;;
71435;SDS011;59251;51.326;12.370;2022-09-28T07:14:05;6.93;;;2.83;;
71435;SDS011;59251;51.326;12.370;2022-09-28T07:16:31;10.60;;;3.30;;
71435;SDS011;59251;51.326;12.370;2022-09-28T07:18:56;8.23;;;2.87;;
71435;SDS011;59251;51.326;12.370;2022-09-28T07:21:21;7.20;;;2.60;;
71435;SDS011;59251;51.326;12.370;2022-09-28T07:23:47;10.97;;;5.00;;
71435;SDS011;59251;51.326;12.370;2022-09-28T07:26:13;8.80;;;3.38;;
71435;SDS011;59251;51.326;12.370;2022-09-28T07:28:38;11.83;;;3.33;;
71435;SDS011;59251;51.326;12.370;2022-09-28T07:31:05;9.48;;;3.15;;
71435;SDS011;59251;51.326;12.370;2022-09-28T07:33:31;9.90;;;3.17;;
71435;SDS011;59251;51.326;12.370;2022-09-28T07:35:57;7.10;;;3.20;;
71435;SDS011;59251;51.326;12.370;2022-09-28T07:38:25;9.15;;;3.45;;
71435;SDS011;59251;51.326;12.370;2022-09-28T07:40:51;8.88;;;2.88;;
71435;SDS011;59251;51.326;12.370;2022-09-28T07:43:34;9.18;;;2.95;;
71435;SDS011;59251;51.326;12.370;2022-09-28T07:46:00;7.40;;;3.27;;
71435;SDS011;59251;51.326;12.370;2022-09-28T07:48:25;8.33;;;3.10;;
71435;SDS011;59251;51.326;12.370;2022-09-28T07:50:51;8.60;;;3.00;;
71435;SDS011;59251;51.326;12.370;2022-09-28T07:53:22;9.35;;;3.38;;
71435;SDS011;59251;51.326;12.370;2022-09-28T07:55:49;8.23;;;2.80;;
71435;SDS011;59251;51.326;12.370;2022-09-28T07:58:29;8.75;;;3.15;;
71435;SDS011;59251;51.326;12.370;2022-09-28T08:00:57;7.97;;;2.70;;
71435;SDS011;59251;51.326;12.370;2022-09-28T08:03:25;8.65;;;2.65;;
71435;SDS011;59251;51.326;12.370;2022-09-28T08:05:55;6.65;;;2.65;;
71435;SDS011;59251;51.326;12.370;2022-09-28T08:08:22;7.43;;;2.47;;
71435;SDS011;59251;51.326;12.370;2022-09-28T08:10:48;7.07;;;2.70;;
71435;SDS011;59251;51.326;12.370;2022-09-28T08:13:16;8.23;;;2.42;;
71435;SDS011;59251;51.326;12.370;2022-09-28T08:15:42;8.35;;;2.60;;
71435;SDS011;59251;51.326;12.370;2022-09-28T08:18:07;6.80;;;2.70;;
71435;SDS011;59251;51.326;12.370;2022-09-28T08:20:33;7.17;;;1.80;;
71435;SDS011;59251;51.326;12.370;2022-09-28T08:23:18;7.63;;;1.80;;
71435;SDS011;59251;51.326;12.370;2022-09-28T08:25:47;10.15;;;3.88;;
71435;SDS011;59251;51.326;12.370;2022-09-28T08:28:13;6.65;;;1.73;;
71435;SDS011;59251;51.326;12.370;2022-09-28T08:30:45;7.07;;;1.37;;
71435;SDS011;59251;51.326;12.370;2022-09-28T08:33:14;6.00;;;1.60;;
71435;SDS011;59251;51.326;12.370;2022-09-28T08:35:47;5.72;;;1.42;;
71435;SDS011;59251;51.326;12.370;2022-09-28T08:38:18;7.20;;;1.75;;
71435;SDS011;59251;51.326;12.370;2022-09-28T08:40:58;5.70;;;1.17;;
71435;SDS011;59251;51.326;12.370;2022-09-28T08:43:43;7.32;;;2.30;;
71435;SDS011;59251;51.326;12.370;2022-09-28T08:46:10;12.00;;;3.67;;
71435;SDS011;59251;51.326;12.370;2022-09-28T08:48:38;8.63;;;2.43;;
71435;SDS011;59251;51.326;12.370;2022-09-28T08:51:26;6.18;;;1.20;;
71435;SDS011;59251;51.326;12.370;2022-09-28T08:54:05;5.20;;;1.50;;
71435;SDS011;59251;51.326;12.370;2022-09-28T08:56:41;9.60;;;2.40;;
71435;SDS011;59251;51.326;12.370;2022-09-28T08:59:16;4.05;;;0.63;;
71435;SDS011;59251;51.326;12.370;2022-09-28T09:01:48;5.13;;;0.80;;
71435;SDS011;59251;51.326;12.370;2022-09-28T09:04:19;4.32;;;0.70;;
71435;SDS011;59251;51.326;12.370;2022-09-28T09:17:53;4.80;;;0.80;;
71435;SDS011;59251;51.326;12.370;2022-09-28T09:30:43;4.70;;;0.52;;
71435;SDS011;59251;51.326;12.370;2022-09-28T09:47:19;4.35;;;0.80;;
71435;SDS011;59251;51.326;12.370;2022-09-28T09:50:02;4.00;;;0.40;;
71435;SDS011;59251;51.326;12.370;2022-09-28T09:52:48;4.33;;;0.50;;
71435;SDS011;59251;51.326;12.370;2022-09-28T09:58:15;3.00;;;0.30;;
71435;SDS011;59251;51.326;12.370;2022-09-28T10:00:46;5.40;;;1.20;;
71435;SDS011;59251;51.326;12.370;2022-09-28T10:03:21;4.32;;;0.77;;
71435;SDS011;59251;51.326;12.370;2022-09-28T10:05:53;4.30;;;0.60;;
71435;SDS011;59251;51.326;12.370;2022-09-28T10:08:22;3.53;;;0.52;;
71435;SDS011;59251;51.326;12.370;2022-09-28T10:11:01;3.70;;;0.50;;
71435;SDS011;59251;51.326;12.370;2022-09-28T10:13:32;3.55;;;0.45;;
71435;SDS011;59251;51.326;12.370;2022-09-28T10:15:58;3.90;;;0.37;;
71435;SDS011;59251;51.326;12.370;2022-09-28T10:18:24;4.40;;;1.08;;
71435;SDS011;59251;51.326;12.370;2022-09-28T10:20:51;4.30;;;0.60;;
71435;SDS011;59251;51.326;12.370;2022-09-28T10:23:35;4.60;;;0.63;;
71435;SDS011;59251;51.326;12.370;2022-09-28T10:26:02;3.73;;;0.60;;
71435;SDS011;59251;51.326;12.370;2022-09-28T10:28:41;5.70;;;1.23;;
71435;SDS011;59251;51.326;12.370;2022-09-28T10:33:59;5.05;;;0.65;;
71435;SDS011;59251;51.326;12.370;2022-09-28T10:36:25;3.27;;;0.40;;
71435;SDS011;59251;51.326;12.370;2022-09-28T10:38:50;4.60;;;0.60;;
71435;SDS011;59251;51.326;12.370;2022-09-28T10:41:17;3.95;;;0.65;;
71435;SDS011;59251;51.326;12.370;2022-09-28T10:43:53;5.03;;;0.65;;
71435;SDS011;59251;51.326;12.370;2022-09-28T10:46:33;11.10;;;2.77;;
71435;SDS011;59251;51.326;12.370;2022-09-28T10:49:12;4.90;;;0.88;;
71435;SDS011;59251;51.326;12.370;2022-09-28T10:51:42;3.85;;;0.60;;
71435;SDS011;59251;51.326;12.370;2022-09-28T10:54:28;5.32;;;0.65;;
71435;SDS011;59251;51.326;12.370;2022-09-28T10:56:55;3.47;;;0.50;;
71435;SDS011;59251;51.326;12.370;2022-09-28T11:01:55;2.97;;;0.50;;
71435;SDS011;59251;51.326;12.370;2022-09-28T11:04:25;4.55;;;0.77;;
71435;SDS011;59251;51.326;12.370;2022-09-28T11:06:52;4.05;;;0.57;;
71435;SDS011;59251;51.326;12.370;2022-09-28T11:09:37;4.55;;;0.73;;
71435;SDS011;59251;51.326;12.370;2022-09-28T11:12:06;5.87;;;0.87;;
71435;SDS011;59251;51.326;12.370;2022-09-28T11:14:39;4.05;;;0.70;;
71435;SDS011;59251;51.326;12.370;2022-09-28T11:22:53;6.28;;;0.95;;
71435;SDS011;59251;51.326;12.370;2022-09-28T11:25:22;4.90;;;0.90;;
71435;SDS011;59251;51.326;12.370;2022-09-28T11:27:56;4.50;;;0.82;;
71435;SDS011;59251;51.326;12.370;2022-09-28T11:33:08;4.50;;;0.57;;
71435;SDS011;59251;51.326;12.370;2022-09-28T11:35:55;4.32;;;0.80;;
71435;SDS011;59251;51.326;12.370;2022-09-28T11:38:38;4.23;;;0.80;;
71435;SDS011;59251;51.326;12.370;2022-09-28T11:52:23;3.50;;;0.60;;
71435;SDS011;59251;51.326;12.370;2022-09-28T11:54:59;3.83;;;0.60;;
71435;SDS011;59251;51.326;12.370;2022-09-28T11:57:27;3.60;;;0.60;;
71435;SDS011;59251;51.326;12.370;2022-09-28T12:00:05;4.28;;;0.60;;
71435;SDS011;59251;51.326;12.370;2022-09-28T12:02:44;4.90;;;0.88;;
71435;SDS011;59251;51.326;12.370;2022-09-28T12:08:08;4.97;;;0.95;;
71435;SDS011;59251;51.326;12.370;2022-09-28T12:10:39;5.35;;;0.98;;
71435;SDS011;59251;51.326;12.370;2022-09-28T12:13:08;23.10;;;1.40;;
71435;SDS011;59251;51.326;12.370;2022-09-28T12:20:50;4.63;;;0.80;;
71435;SDS011;59251;51.326;12.370;2022-09-28T12:23:40;5.43;;;1.20;;
71435;SDS011;59251;51.326;12.370;2022-09-28T12:26:17;6.55;;;1.42;;
71435;SDS011;59251;51.326;12.370;2022-09-28T12:29:25;4.80;;;1.33;;
71435;SDS011;59251;51.326;12.370;2022-09-28T12:31:58;4.27;;;0.90;;
71435;SDS011;59251;51.326;12.370;2022-09-28T12:34:27;4.60;;;0.90;;
71435;SDS011;59251;51.326;12.370;2022-09-28T12:36:56;5.43;;;1.30;;
71435;SDS011;59251;51.326;12.370;2022-09-28T12:42:27;4.95;;;1.23;;
71435;SDS011;59251;51.326;12.370;2022-09-28T12:53:47;4.82;;;0.88;;
71435;SDS011;59251;51.326;12.370;2022-09-28T12:59:46;5.18;;;1.08;;
71435;SDS011;59251;51.326;12.370;2022-09-28T13:10:17;6.13;;;1.40;;
71435;SDS011;59251;51.326;12.370;2022-09-28T13:18:18;5.80;;;1.30;;
71435;SDS011;59251;51.326;12.370;2022-09-28T13:21:09;5.45;;;1.55;;
71435;SDS011;59251;51.326;12.370;2022-09-28T13:23:47;6.13;;;1.73;;
71435;SDS011;59251;51.326;12.370;2022-09-28T13:26:29;5.38;;;1.30;;
71435;SDS011;59251;51.326;12.370;2022-09-28T13:29:02;4.80;;;1.40;;
71435;SDS011;59251;51.326;12.370;2022-09-28T13:31:34;5.20;;;1.30;;
71435;SDS011;59251;51.326;12.370;2022-09-28T13:34:11;5.50;;;1.30;;
71435;SDS011;59251;51.326;12.370;2022-09-28T13:36:44;5.35;;;1.70;;
71435;SDS011;59251;51.326;12.370;2022-09-28T13:42:04;6.10;;;1.52;;
71435;SDS011;59251;51.326;12.370;2022-09-28T13:44:35;5.67;;;1.70;;
71435;SDS011;59251;51.326;12.370;2022-09-28T13:47:31;6.15;;;1.45;;
71435;SDS011;59251;51.326;12.370;2022-09-28T13:50:31;5.03;;;1.38;;
71435;SDS011;59251;51.326;12.370;2022-09-28T13:53:35;5.00;;;1.30;;
71435;SDS011;59251;51.326;12.370;2022-09-28T13:55:59;5.90;;;1.55;;
71435;SDS011;59251;51.326;12.370;2022-09-28T13:58:52;5.03;;;1.60;;
71435;SDS011;59251;51.326;12.370;2022-09-28T14:01:26;5.55;;;1.67;;
71435;SDS011;59251;51.326;12.370;2022-09-28T14:04:18;5.75;;;1.58;;
71435;SDS011;59251;51.326;12.370;2022-09-28T14:06:55;4.60;;;1.10;;
71435;SDS011;59251;51.326;12.370;2022-09-28T14:12:26;4.27;;;0.80;;
71435;SDS011;59251;51.326;12.370;2022-09-28T14:14:58;4.53;;;0.95;;
71435;SDS011;59251;51.326;12.370;2022-09-28T14:19:53;4.47;;;0.90;;
71435;SDS011;59251;51.326;12.370;2022-09-28T14:22:27;4.50;;;1.00;;
71435;SDS011;59251;51.326;12.370;2022-09-28T14:25:18;5.38;;;1.30;;
71435;SDS011;59251;51.326;12.370;2022-09-28T14:28:06;4.80;;;1.33;;
71435;SDS011;59251;51.326;12.370;2022-09-28T14:30:51;5.35;;;1.20;;
71435;SDS011;59251;51.326;12.370;2022-09-28T14:35:49;6.00;;;1.50;;
71435;SDS011;59251;51.326;12.370;2022-09-28T14:38:19;6.22;;;1.30;;
71435;SDS011;59251;51.326;12.370;2022-09-28T14:41:09;4.95;;;1.27;;
71435;SDS011;59251;51.326;12.370;2022-09-28T14:48:46;5.00;;;1.10;;
71435;SDS011;59251;51.326;12.370;2022-09-28T14:56:42;5.55;;;1.40;;
71435;SDS011;59251;51.326;12.370;2022-09-28T14:59:18;5.60;;;1.50;;
71435;SDS011;59251;51.326;12.370;2022-09-28T15:01:49;6.47;;;1.63;;
71435;SDS011;59251;51.326;12.370;2022-09-28T15:04:19;5.33;;;1.50;;
71435;SDS011;59251;51.326;12.370;2022-09-28T15:06:47;4.78;;;1.38;;
71435;SDS011;59251;51.326;12.370;2022-09-28T15:12:00;5.60;;;1.58;;
71435;SDS011;59251;51.326;12.370;2022-09-28T15:14:30;6.32;;;1.40;;
71435;SDS011;59251;51.326;12.370;2022-09-28T15:16:59;5.80;;;1.10;;
71435;SDS011;59251;51.326;12.370;2022-09-28T15:19:38;4.80;;;1.23;;
71435;SDS011;59251;51.326;12.370;2022-09-28T15:22:17;5.13;;;1.27;;
71435;SDS011;59251;51.326;12.370;2022-09-28T15:24:44;5.03;;;1.30;;
71435;SDS011;59251;51.326;12.370;2022-09-28T15:27:18;5.20;;;1.40;;
71435;SDS011;59251;51.326;12.370;2022-09-28T15:32:47;5.00;;;1.20;;
71435;SDS011;59251;51.326;12.370;2022-09-28T15:35:17;6.63;;;1.50;;
71435;SDS011;59251;51.326;12.370;2022-09-28T15:37:44;4.93;;;1.60;;
71435;SDS011;59251;51.326;12.370;2022-09-28T15:40:16;5.10;;;1.30;;
71435;SDS011;59251;51.326;12.370;2022-09-28T15:43:03;5.15;;;1.30;;
71435;SDS011;59251;51.326;12.370;2022-09-28T15:45:54;5.22;;;1.40;;
71435;SDS011;59251;51.326;12.370;2022-09-28T15:48:39;5.63;;;1.40;;
71435;SDS011;59251;51.326;12.370;2022-09-28T15:51:16;6.05;;;1.58;;
71435;SDS011;59251;51.326;12.370;2022-09-28T15:53:50;5.10;;;1.00;;
71435;SDS011;59251;51.326;12.370;2022-09-28T15:56:22;5.45;;;1.30;;
71435;SDS011;59251;51.326;12.370;2022-09-28T15:59:07;7.43;;;2.38;;
71435;SDS011;59251;51.326;12.370;2022-09-28T16:01:35;4.95;;;1.42;;
71435;SDS011;59251;51.326;12.370;2022-09-28T16:07:19;6.60;;;1.67;;
71435;SDS011;59251;51.326;12.370;2022-09-28T16:12:42;5.47;;;1.83;;
71435;SDS011;59251;51.326;12.370;2022-09-28T16:15:13;5.50;;;1.52;;
71435;SDS011;59251;51.326;12.370;2022-09-28T16:17:56;5.63;;;1.60;;
71435;SDS011;59251;51.326;12.370;2022-09-28T16:20:27;8.40;;;1.43;;
71435;SDS011;59251;51.326;12.370;2022-09-28T16:22:56;4.95;;;1.70;;
71435;SDS011;59251;51.326;12.370;2022-09-28T16:25:30;5.82;;;1.50;;
71435;SDS011;59251;51.326;12.370;2022-09-28T16:27:57;4.95;;;1.40;;
71435;SDS011;59251;51.326;12.370;2022-09-28T16:30:26;5.60;;;1.70;;
71435;SDS011;59251;51.326;12.370;2022-09-28T16:35:31;8.45;;;2.53;;
71435;SDS011;59251;51.326;12.370;2022-09-28T16:38:09;6.88;;;2.17;;
71435;SDS011;59251;51.326;12.370;2022-09-28T16:40:38;5.68;;;1.98;;
71435;SDS011;59251;51.326;12.370;2022-09-28T16:43:05;8.87;;;2.63;;
71435;SDS011;59251;51.326;12.370;2022-09-28T16:45:32;7.70;;;2.10;;
71435;SDS011;59251;51.326;12.370;2022-09-28T16:47:59;7.45;;;2.00;;
71435;SDS011;59251;51.326;12.370;2022-09-28T16:50:25;6.57;;;1.92;;
71435;SDS011;59251;51.326;12.370;2022-09-28T16:53:04;6.97;;;2.20;;
71435;SDS011;59251;51.326;12.370;2022-09-28T16:55:54;12.37;;;5.07;;
71435;SDS011;59251;51.326;12.370;2022-09-28T16:58:19;9.35;;;3.03;;
71435;SDS011;59251;51.326;12.370;2022-09-28T17:00:46;8.65;;;2.90;;
71435;SDS011;59251;51.326;12.370;2022-09-28T17:03:15;12.88;;;4.05;;
71435;SDS011;59251;51.326;12.370;2022-09-28T17:05:42;15.63;;;4.60;;
71435;SDS011;59251;51.326;12.370;2022-09-28T17:08:10;8.68;;;3.22;;
71435;SDS011;59251;51.326;12.370;2022-09-28T17:10:51;9.52;;;2.92;;
71435;SDS011;59251;51.326;12.370;2022-09-28T17:13:23;8.48;;;3.00;;
71435;SDS011;59251;51.326;12.370;2022-09-28T17:15:59;7.88;;;3.30;;
71435;SDS011;59251;51.326;12.370;2022-09-28T17:18:25;9.80;;;3.03;;
71435;SDS011;59251;51.326;12.370;2022-09-28T17:20:51;7.70;;;3.25;;
71435;SDS011;59251;51.326;12.370;2022-09-28T17:23:19;7.90;;;3.20;;
71435;SDS011;59251;51.326;12.370;2022-09-28T17:25:45;9.90;;;3.03;;
71435;SDS011;59251;51.326;12.370;2022-09-28T17:28:18;9.82;;;4.32;;
71435;SDS011;59251;51.326;12.370;2022-09-28T17:30:46;10.93;;;4.05;;
71435;SDS011;59251;51.326;12.370;2022-09-28T17:33:11;11.63;;;4.40;;
71435;SDS011;59251;51.326;12.370;2022-09-28T17:35:37;11.18;;;4.78;;
71435;SDS011;59251;51.326;12.370;2022-09-28T17:38:03;11.50;;;4.18;;
71435;SDS011;59251;51.326;12.370;2022-09-28T17:40:29;12.43;;;5.50;;